Time;durP1;ratioP1;P1;durP2;ratioP2;P2;SDS_P1;SDS_P2;PMS_P1;PMS_P2;Temp;Humidity;BMP_temperature;BMP_pressure;BME280_temperature;BME280_humidity;BME280_pressure;Samples;Min_cycle;Max_cycle;Signal;HPM_P1;HPM_P2
2022/10/11 00:02:18;;;;;;;4.57;1.60;;;11.20;99.90;;;;;;5280014;28;20246;-46
2022/10/11 00:04:51;;;;;;;9.37;2.70;;;11.20;99.90;;;;;;5266895;27;20208;-47
2022/10/11 00:07:22;;;;;;;2.93;1.60;;;11.10;99.90;;;;;;5280040;28;20664;-46
2022/10/11 00:09:52;;;;;;;3.70;2.60;;;11.00;99.90;;;;;;5272596;28;20431;-47
2022/10/11 00:12:23;;;;;;;2.70;2.00;;;11.00;99.90;;;;;;5292492;27;20247;-47
2022/10/11 00:14:54;;;;;;;12.53;2.30;;;11.00;99.90;;;;;;5269507;28;20201;-46
2022/10/11 00:17:24;;;;;;;3.13;1.87;;;10.90;99.90;;;;;;5281672;27;20191;-47
2022/10/11 00:19:55;;;;;;;4.27;1.37;;;10.90;99.90;;;;;;5287746;28;20638;-46
2022/10/11 00:22:26;;;;;;;9.83;2.17;;;10.80;99.90;;;;;;5278741;28;20614;-47
2022/10/11 00:24:57;;;;;;;4.70;1.87;;;10.70;99.90;;;;;;5279938;28;20260;-46
2022/10/11 00:27:28;;;;;;;17.63;2.53;;;10.60;99.90;;;;;;5270745;28;20189;-46
2022/10/11 00:29:59;;;;;;;2.20;1.83;;;10.60;99.90;;;;;;5281136;27;20436;-47
2022/10/11 00:32:31;;;;;;;3.30;1.27;;;10.60;99.90;;;;;;5264289;28;20292;-47
2022/10/11 00:35:03;;;;;;;3.27;2.17;;;10.60;99.90;;;;;;5287459;27;20239;-47
2022/10/11 00:37:36;;;;;;;7.60;2.17;;;10.60;99.90;;;;;;5290147;28;20434;-47
2022/10/11 00:40:12;;;;;;;5.93;1.90;;;10.50;99.90;;;;;;5281088;27;20528;-47
2022/10/11 00:42:42;;;;;;;13.23;2.10;;;10.50;99.90;;;;;;5272420;28;20441;-47
2022/10/11 00:45:25;;;;;;;5.70;2.00;;;10.40;99.90;;;;;;5263088;28;20848;-46
2022/10/11 00:48:01;;;;;;;6.93;2.00;;;10.40;99.90;;;;;;5288856;27;20188;-48
2022/10/11 00:50:34;;;;;;;3.30;1.30;;;10.40;99.90;;;;;;5260901;28;20434;-47
2022/10/11 00:53:10;;;;;;;4.83;2.00;;;10.30;99.90;;;;;;5268495;28;20466;-48
2022/10/11 00:55:50;;;;;;;7.17;2.60;;;10.20;99.90;;;;;;5262540;28;20479;-47
2022/10/11 00:58:22;;;;;;;12.70;2.57;;;10.20;99.90;;;;;;5285555;27;20439;-49
2022/10/11 01:00:53;;;;;;;4.37;1.73;;;10.10;99.90;;;;;;5290708;28;23565;-47
2022/10/11 01:03:25;;;;;;;5.87;1.80;;;10.20;99.90;;;;;;5290056;27;20494;-46
2022/10/11 01:05:56;;;;;;;3.73;2.10;;;10.00;99.90;;;;;;5291523;28;20208;-46
2022/10/11 01:08:27;;;;;;;13.47;2.10;;;10.00;99.90;;;;;;5270691;28;21000;-47
2022/10/11 01:10:58;;;;;;;8.47;1.83;;;9.90;99.90;;;;;;5268772;28;20263;-48
2022/10/11 01:13:34;;;;;;;9.10;1.80;;;9.80;99.90;;;;;;5263532;28;20267;-47
2022/10/11 01:16:20;;;;;;;9.83;1.67;;;9.80;99.90;;;;;;5288699;28;20216;-46
2022/10/11 01:18:53;;;;;;;3.70;1.87;;;9.70;99.90;;;;;;5283851;27;20518;-46
2022/10/11 01:21:59;;;;;;;4.83;2.10;;;9.70;99.90;;;;;;5263084;28;20441;-47
2022/10/11 01:24:59;;;;;;;7.43;1.80;;;9.60;99.90;;;;;;5242401;28;20827;-46
2022/10/11 01:27:34;;;;;;;8.60;2.30;;;9.60;99.90;;;;;;5266251;27;20451;-48
2022/10/11 01:30:22;;;;;;;7.40;2.30;;;9.60;99.90;;;;;;5267769;28;20435;-47
2022/10/11 01:32:58;;;;;;;7.20;1.77;;;9.60;99.90;;;;;;5287102;27;20551;-47
2022/10/11 01:35:46;;;;;;;12.30;2.77;;;9.60;99.90;;;;;;5288044;27;20850;-47
2022/10/11 01:38:31;;;;;;;7.53;2.30;;;9.50;99.90;;;;;;5267932;27;20446;-48
2022/10/11 01:41:09;;;;;;;4.70;1.90;;;9.60;99.90;;;;;;5284489;27;20435;-47
2022/10/11 01:43:41;;;;;;;7.80;2.13;;;9.50;99.90;;;;;;5261904;28;20857;-48
2022/10/11 01:46:12;;;;;;;9.93;1.77;;;9.40;99.90;;;;;;5284530;27;21000;-46
2022/10/11 01:49:02;;;;;;;7.83;2.17;;;9.40;99.90;;;;;;5269014;28;20435;-47
2022/10/11 01:51:40;;;;;;;6.00;1.80;;;9.30;99.90;;;;;;5289825;27;20465;-46
2022/10/11 01:54:44;;;;;;;9.83;1.80;;;9.20;99.90;;;;;;5285561;28;20455;-47
2022/10/11 01:57:34;;;;;;;4.67;2.10;;;9.20;99.90;;;;;;5263691;28;20426;-46
2022/10/11 02:00:34;;;;;;;8.30;2.20;;;9.20;99.90;;;;;;5274568;28;20424;-47
2022/10/11 02:03:26;;;;;;;13.20;1.80;;;9.20;99.90;;;;;;5267011;28;20430;-46
2022/10/11 02:06:07;;;;;;;7.77;2.27;;;9.10;99.90;;;;;;5283518;28;20465;-47
2022/10/11 02:09:02;;;;;;;7.40;2.00;;;9.10;99.90;;;;;;5263785;28;21046;-47
2022/10/11 02:11:34;;;;;;;10.90;2.30;;;9.10;99.90;;;;;;5287650;27;20455;-46
2022/10/11 02:14:24;;;;;;;25.20;2.33;;;9.10;99.90;;;;;;5269063;28;20477;-47
2022/10/11 02:17:02;;;;;;;6.77;2.53;;;9.10;99.90;;;;;;5283161;28;20937;-47
2022/10/11 02:19:51;;;;;;;14.73;2.03;;;9.10;99.90;;;;;;5288027;28;20438;-46
2022/10/11 02:22:28;;;;;;;5.93;1.73;;;9.10;99.90;;;;;;5275128;28;20476;-46
2022/10/11 02:25:04;;;;;;;13.70;2.60;;;9.00;99.90;;;;;;5265523;28;20461;-46
2022/10/11 02:27:38;;;;;;;7.60;2.40;;;9.00;99.90;;;;;;5271620;28;20491;-47
2022/10/11 02:30:10;;;;;;;7.47;2.07;;;9.00;99.90;;;;;;5277762;28;20474;-47
2022/10/11 02:32:44;;;;;;;15.30;2.63;;;9.00;99.90;;;;;;5276901;28;20467;-48
2022/10/11 02:35:16;;;;;;;6.80;2.10;;;8.90;99.90;;;;;;5284589;28;20453;-48
2022/10/11 02:38:20;;;;;;;13.33;2.50;;;8.90;99.90;;;;;;5284026;28;20426;-48
2022/10/11 02:40:59;;;;;;;5.80;2.50;;;8.80;99.90;;;;;;5286406;28;20430;-47
2022/10/11 02:43:36;;;;;;;12.33;2.30;;;8.80;99.90;;;;;;5274460;28;20438;-47
2022/10/11 02:46:08;;;;;;;19.20;2.80;;;8.70;99.90;;;;;;5279272;27;20465;-47
2022/10/11 02:48:39;;;;;;;20.13;2.40;;;8.70;99.90;;;;;;5283301;27;20441;-47
2022/10/11 02:51:13;;;;;;;18.20;3.30;;;8.80;99.90;;;;;;5250962;28;20439;-48
2022/10/11 02:53:44;;;;;;;12.63;2.60;;;8.80;99.90;;;;;;5270360;28;20259;-47
2022/10/11 02:56:14;;;;;;;9.13;2.80;;;8.80;99.90;;;;;;5270109;28;20573;-47
2022/10/11 02:58:45;;;;;;;14.23;2.50;;;8.80;99.90;;;;;;5286515;28;20224;-46
2022/10/11 03:01:16;;;;;;;6.73;2.33;;;8.80;99.90;;;;;;5252593;28;20195;-47
2022/10/11 03:03:46;;;;;;;14.57;2.47;;;8.80;99.90;;;;;;5259858;28;20185;-46
2022/10/11 03:06:17;;;;;;;14.83;2.97;;;8.80;99.90;;;;;;5288724;28;20205;-46
2022/10/11 03:08:48;;;;;;;9.93;2.70;;;8.70;99.90;;;;;;5271747;28;20242;-46
2022/10/11 03:11:19;;;;;;;12.40;3.20;;;8.80;99.90;;;;;;5290986;28;20442;-49
2022/10/11 03:13:49;;;;;;;5.10;1.83;;;8.80;99.90;;;;;;5272879;28;20211;-47
2022/10/11 03:16:20;;;;;;;22.07;3.00;;;8.80;99.90;;;;;;5282479;28;20182;-47
2022/10/11 03:18:50;;;;;;;11.03;2.70;;;8.80;99.90;;;;;;5283402;28;20181;-47
2022/10/11 03:21:23;;;;;;;14.50;2.90;;;8.70;99.90;;;;;;5288722;28;20206;-47
2022/10/11 03:23:54;;;;;;;10.90;2.10;;;8.70;99.90;;;;;;5264637;28;20237;-46
2022/10/11 03:26:24;;;;;;;15.10;2.90;;;8.70;99.90;;;;;;5287430;28;20561;-47
2022/10/11 03:28:55;;;;;;;10.83;2.57;;;8.70;99.90;;;;;;5285588;28;20172;-48
2022/10/11 03:31:26;;;;;;;9.77;2.40;;;8.70;99.90;;;;;;5290453;27;20213;-47
2022/10/11 03:33:56;;;;;;;13.97;3.13;;;8.70;99.90;;;;;;5291713;28;20525;-47
2022/10/11 03:36:27;;;;;;;7.37;2.43;;;8.70;99.90;;;;;;5279500;27;20184;-47
2022/10/11 03:38:59;;;;;;;14.93;2.70;;;8.70;99.90;;;;;;5290939;28;20251;-46
2022/10/11 03:41:29;;;;;;;20.13;2.73;;;8.60;99.90;;;;;;5265474;27;20185;-47
2022/10/11 03:44:00;;;;;;;15.77;3.10;;;8.60;99.90;;;;;;5291095;28;20435;-47
2022/10/11 03:46:31;;;;;;;10.10;3.27;;;8.60;99.90;;;;;;5270679;22;20262;-48
2022/10/11 03:49:01;;;;;;;11.20;2.50;;;8.60;99.90;;;;;;5249690;28;20510;-50
2022/10/11 03:51:32;;;;;;;15.03;2.37;;;8.60;99.90;;;;;;5270792;28;20205;-49
2022/10/11 03:54:02;;;;;;;16.60;3.47;;;8.50;99.90;;;;;;5249930;28;20603;-48
2022/10/11 03:56:33;;;;;;;10.10;2.70;;;8.50;99.90;;;;;;5268417;28;20254;-48
2022/10/11 03:59:04;;;;;;;13.20;3.00;;;8.50;99.90;;;;;;5254370;28;20641;-47
2022/10/11 04:01:36;;;;;;;11.80;3.30;;;8.50;99.90;;;;;;5256319;28;20174;-50
2022/10/11 04:04:07;;;;;;;8.83;2.30;;;8.50;99.90;;;;;;5270442;28;20309;-48
2022/10/11 04:06:37;;;;;;;10.50;2.90;;;8.50;99.90;;;;;;5263831;28;20460;-49
2022/10/11 04:09:08;;;;;;;8.80;2.53;;;8.50;99.90;;;;;;5265789;28;20233;-49
2022/10/11 04:11:38;;;;;;;9.90;2.90;;;8.50;99.90;;;;;;5254266;28;20208;-50
2022/10/11 04:14:10;;;;;;;19.17;2.90;;;8.50;99.90;;;;;;5268476;28;20185;-48
2022/10/11 04:16:40;;;;;;;13.33;3.60;;;8.50;99.90;;;;;;5266853;28;20204;-48
2022/10/11 04:19:11;;;;;;;10.27;2.60;;;8.50;99.90;;;;;;5266498;28;20429;-48
2022/10/11 04:21:42;;;;;;;12.53;3.23;;;8.50;99.90;;;;;;5262712;28;20174;-48
2022/10/11 04:24:12;;;;;;;9.07;3.03;;;8.50;99.90;;;;;;5252801;28;20186;-48
2022/10/11 04:26:43;;;;;;;18.73;3.93;;;8.40;99.90;;;;;;5264774;28;20209;-49
2022/10/11 04:29:13;;;;;;;17.90;4.17;;;8.40;99.90;;;;;;5254130;28;20659;-50
2022/10/11 04:31:44;;;;;;;14.77;4.20;;;8.30;99.90;;;;;;5262304;28;20212;-47
2022/10/11 04:34:14;;;;;;;11.27;4.47;;;8.30;99.90;;;;;;5250130;28;20173;-50
2022/10/11 04:36:45;;;;;;;20.53;4.87;;;8.30;99.90;;;;;;5264336;28;20184;-48
2022/10/11 04:39:16;;;;;;;13.60;4.57;;;8.40;99.90;;;;;;5262465;28;20189;-49
2022/10/11 04:41:46;;;;;;;10.43;4.30;;;8.30;99.90;;;;;;5263622;28;20197;-49
2022/10/11 04:44:17;;;;;;;14.33;3.83;;;8.30;99.90;;;;;;5244136;28;20186;-48
2022/10/11 04:46:47;;;;;;;11.20;3.43;;;8.40;99.90;;;;;;5268566;28;20196;-47
2022/10/11 04:49:18;;;;;;;16.37;4.17;;;8.30;99.90;;;;;;5253560;28;20619;-48
2022/10/11 04:51:49;;;;;;;19.17;4.40;;;8.30;99.90;;;;;;5259324;28;20402;-47
2022/10/11 04:54:20;;;;;;;12.20;4.00;;;8.30;99.90;;;;;;5244539;28;20178;-48
2022/10/11 04:56:50;;;;;;;11.97;4.90;;;8.30;99.90;;;;;;5262854;28;20444;-49
2022/10/11 04:59:21;;;;;;;20.03;5.10;;;8.30;99.90;;;;;;5245495;28;20545;-49
2022/10/11 05:01:52;;;;;;;19.53;5.00;;;8.30;99.90;;;;;;5253046;28;20522;-50
2022/10/11 05:04:22;;;;;;;14.97;5.00;;;8.30;99.90;;;;;;5255925;28;20181;-47
2022/10/11 05:06:53;;;;;;;17.97;5.13;;;8.30;99.90;;;;;;5270478;28;20211;-51
2022/10/11 05:09:24;;;;;;;22.93;5.00;;;8.30;99.90;;;;;;5257558;28;20183;-49
2022/10/11 05:11:54;;;;;;;19.23;5.07;;;8.30;99.90;;;;;;5266093;28;20197;-48
2022/10/11 05:14:25;;;;;;;13.50;4.10;;;8.20;99.90;;;;;;5259857;28;20185;-48
2022/10/11 05:16:55;;;;;;;11.13;3.47;;;8.30;99.90;;;;;;5262775;28;20193;-48
2022/10/11 05:19:26;;;;;;;11.90;3.87;;;8.30;99.90;;;;;;5254517;28;20182;-49
2022/10/11 05:21:56;;;;;;;19.00;4.40;;;8.30;99.90;;;;;;5258734;28;20200;-48
2022/10/11 05:24:27;;;;;;;9.33;3.17;;;8.20;99.90;;;;;;5245184;28;20580;-48
2022/10/11 05:26:58;;;;;;;10.93;4.37;;;8.30;99.90;;;;;;5246644;28;20239;-49
2022/10/11 05:29:28;;;;;;;13.40;4.43;;;8.30;99.90;;;;;;5253179;28;20586;-49
2022/10/11 05:31:59;;;;;;;13.53;4.73;;;8.30;99.90;;;;;;5236108;28;20685;-49
2022/10/11 05:34:29;;;;;;;16.03;3.60;;;8.30;99.90;;;;;;5263357;28;20264;-48
2022/10/11 05:37:00;;;;;;;12.00;3.60;;;8.30;99.90;;;;;;5261802;28;20268;-47
2022/10/11 05:39:31;;;;;;;14.70;4.30;;;8.30;99.90;;;;;;5252170;28;20189;-50
2022/10/11 05:42:01;;;;;;;11.10;4.37;;;8.30;99.90;;;;;;5258841;28;20178;-50
2022/10/11 05:44:32;;;;;;;12.33;4.77;;;8.40;99.90;;;;;;5256863;28;20265;-48
2022/10/11 05:47:02;;;;;;;10.93;4.50;;;8.50;99.90;;;;;;5263259;28;20200;-49
2022/10/11 05:49:33;;;;;;;20.67;4.37;;;8.60;99.90;;;;;;5250088;28;20185;-50
2022/10/11 05:52:05;;;;;;;9.57;4.30;;;8.70;99.90;;;;;;5240978;28;20711;-51
2022/10/11 05:54:36;;;;;;;22.13;5.00;;;8.80;99.90;;;;;;5244131;28;20592;-49
2022/10/11 05:57:06;;;;;;;12.30;3.10;;;8.90;99.90;;;;;;5265833;28;20470;-47
2022/10/11 05:59:37;;;;;;;21.53;3.60;;;8.90;99.90;;;;;;5249522;28;20173;-50
2022/10/11 06:02:11;;;;;;;23.30;5.23;;;9.00;99.90;;;;;;5255617;28;20188;-49
2022/10/11 06:04:42;;;;;;;22.77;4.23;;;9.00;99.90;;;;;;5261015;28;20602;-48
2022/10/11 06:07:12;;;;;;;15.67;4.93;;;9.10;99.90;;;;;;5235881;28;20550;-49
2022/10/11 06:09:43;;;;;;;17.10;4.70;;;9.10;99.90;;;;;;5263823;28;20185;-50
2022/10/11 06:12:14;;;;;;;16.83;4.30;;;9.10;99.90;;;;;;5240133;28;20237;-49
2022/10/11 06:14:44;;;;;;;15.80;3.83;;;9.20;99.90;;;;;;5258039;28;20193;-50
2022/10/11 06:17:15;;;;;;;8.83;3.97;;;9.30;99.90;;;;;;5253014;28;20195;-49
2022/10/11 06:19:45;;;;;;;10.80;4.00;;;9.40;99.90;;;;;;5253125;28;20190;-50
2022/10/11 06:22:16;;;;;;;17.93;3.87;;;9.60;99.90;;;;;;5244113;28;20359;-49
2022/10/11 06:24:47;;;;;;;9.67;4.03;;;10.30;99.90;;;;;;5258811;28;20289;-48
2022/10/11 06:27:17;;;;;;;21.40;3.80;;;11.50;99.90;;;;;;5242883;28;20427;-50
2022/10/11 06:29:48;;;;;;;10.53;3.67;;;12.80;99.90;;;;;;5238681;28;20636;-50
2022/10/11 06:32:19;;;;;;;7.43;3.20;;;14.00;99.90;;;;;;5239768;28;20304;-47
2022/10/11 06:34:49;;;;;;;8.13;3.60;;;15.20;99.90;;;;;;5254515;28;20282;-48
2022/10/11 06:37:20;;;;;;;16.73;3.70;;;16.30;99.90;;;;;;5262628;28;20181;-49
2022/10/11 06:39:50;;;;;;;18.70;3.30;;;16.90;99.90;;;;;;5259654;28;20211;-48
2022/10/11 06:42:21;;;;;;;8.13;3.13;;;17.30;98.30;;;;;;5250962;28;20193;-48
2022/10/11 06:45:10;;;;;;;5.53;2.93;;;17.80;96.00;;;;;;5242644;28;20230;-50
2022/10/11 06:47:40;;;;;;;12.87;2.77;;;18.40;92.80;;;;;;5258226;28;20456;-49
2022/10/11 06:50:12;;;;;;;9.70;4.43;;;18.60;88.50;;;;;;5245941;28;20190;-48
2022/10/11 06:52:42;;;;;;;8.80;3.40;;;19.10;83.80;;;;;;5260838;28;20209;-49
2022/10/11 06:55:13;;;;;;;7.73;3.70;;;19.60;79.10;;;;;;5255820;28;20485;-50
2022/10/11 06:57:43;;;;;;;8.33;2.70;;;20.30;73.40;;;;;;5241846;28;20205;-50
2022/10/11 07:00:14;;;;;;;10.43;3.13;;;20.60;69.10;;;;;;5246512;28;20247;-51
2022/10/11 07:02:47;;;;;;;11.10;3.83;;;20.80;65.10;;;;;;5254358;28;20212;-49
2022/10/11 07:05:18;;;;;;;9.93;2.50;;;21.20;63.80;;;;;;5252740;28;20769;-49
2022/10/11 07:07:48;;;;;;;8.33;3.70;;;21.50;61.40;;;;;;5243842;28;20539;-49
2022/10/11 07:10:19;;;;;;;8.37;3.33;;;21.70;59.30;;;;;;5250069;28;20597;-49
2022/10/11 07:12:52;;;;;;;10.67;2.90;;;21.40;58.00;;;;;;5235090;28;20206;-48
2022/10/11 07:15:23;;;;;;;6.93;2.67;;;21.60;58.80;;;;;;5247361;28;20231;-49
2022/10/11 07:17:53;;;;;;;15.47;3.80;;;21.20;57.40;;;;;;5250232;28;20474;-48
2022/10/11 07:20:24;;;;;;;7.03;2.97;;;21.20;58.70;;;;;;5251683;28;20190;-49
2022/10/11 07:22:54;;;;;;;13.70;3.40;;;21.00;57.80;;;;;;5245666;28;20655;-49
2022/10/11 07:25:25;;;;;;;6.87;2.53;;;20.20;58.50;;;;;;5256330;28;20285;-49
2022/10/11 07:27:55;;;;;;;10.03;2.83;;;18.90;61.40;;;;;;5255884;28;20228;-48
2022/10/11 07:30:26;;;;;;;24.07;3.23;;;18.00;66.30;;;;;;5240865;28;21173;-48
2022/10/11 07:32:56;;;;;;;10.70;2.70;;;16.70;70.50;;;;;;5257050;28;20253;-48
2022/10/11 07:35:27;;;;;;;12.37;2.70;;;15.20;79.30;;;;;;5258052;28;20278;-49
2022/10/11 07:37:58;;;;;;;4.30;3.43;;;14.30;93.20;;;;;;5256414;28;20201;-52
2022/10/11 07:40:28;;;;;;;7.70;3.70;;;13.80;99.90;;;;;;5259231;28;20182;-50
2022/10/11 07:42:59;;;;;;;8.47;4.13;;;13.50;99.90;;;;;;5258741;28;20177;-49
2022/10/11 07:45:30;;;;;;;6.07;2.80;;;13.30;99.90;;;;;;5260952;28;20294;-49
2022/10/11 07:48:00;;;;;;;18.70;4.13;;;13.10;99.90;;;;;;5250753;28;20493;-50
2022/10/11 07:50:32;;;;;;;9.23;3.17;;;13.10;99.90;;;;;;5262772;28;20250;-49
2022/10/11 07:53:03;;;;;;;14.80;4.30;;;12.80;99.90;;;;;;5248053;28;20233;-50
2022/10/11 07:55:38;;;;;;;16.13;3.70;;;12.40;99.90;;;;;;5252028;28;20538;-50
2022/10/11 07:58:11;;;;;;;11.20;3.47;;;12.10;99.90;;;;;;5265117;28;20265;-49
2022/10/11 08:00:41;;;;;;;19.73;4.80;;;12.00;99.90;;;;;;5254513;28;20428;-50
2022/10/11 08:03:12;;;;;;;11.57;3.10;;;11.80;99.90;;;;;;5248891;28;20485;-49
2022/10/11 08:05:43;;;;;;;15.70;3.67;;;11.80;99.90;;;;;;5253929;28;20575;-48
2022/10/11 08:08:14;;;;;;;5.20;2.63;;;11.60;99.90;;;;;;5248513;28;20194;-50
2022/10/11 08:10:44;;;;;;;13.50;3.70;;;11.70;99.90;;;;;;5234515;28;20189;-50
2022/10/11 08:13:16;;;;;;;11.77;5.00;;;11.60;99.90;;;;;;5254652;28;20522;-52
2022/10/11 08:15:46;;;;;;;10.77;3.60;;;11.60;99.90;;;;;;5238760;28;20194;-49
2022/10/11 08:18:17;;;;;;;9.00;3.60;;;11.70;99.90;;;;;;5260089;28;20565;-49
2022/10/11 08:20:48;;;;;;;11.40;3.40;;;11.60;99.90;;;;;;5247570;28;20572;-49
2022/10/11 08:23:18;;;;;;;19.13;3.67;;;11.50;99.90;;;;;;5264213;28;20292;-50
2022/10/11 08:25:54;;;;;;;15.60;4.23;;;11.50;99.90;;;;;;5247356;28;20557;-49
2022/10/11 08:28:25;;;;;;;10.93;4.00;;;11.50;99.90;;;;;;5258401;28;20273;-49
2022/10/11 08:30:56;;;;;;;19.13;4.07;;;11.50;99.90;;;;;;5265394;28;21010;-49
2022/10/11 08:33:27;;;;;;;9.37;2.90;;;11.60;99.90;;;;;;5263378;28;20699;-50
2022/10/11 08:35:57;;;;;;;9.23;3.23;;;11.60;99.90;;;;;;5247243;28;20232;-49
2022/10/11 08:38:28;;;;;;;11.57;3.17;;;11.70;99.90;;;;;;5264686;28;20890;-49
2022/10/11 08:40:59;;;;;;;19.70;3.40;;;11.70;99.90;;;;;;5244262;28;20197;-50
2022/10/11 08:43:45;;;;;;;15.67;3.63;;;11.70;99.90;;;;;;5250543;28;20223;-49
2022/10/11 08:46:22;;;;;;;7.90;3.90;;;11.80;99.90;;;;;;5241848;28;20483;-48
2022/10/11 08:48:53;;;;;;;12.93;2.63;;;11.90;99.90;;;;;;5255457;28;20467;-49
2022/10/11 08:51:46;;;;;;;17.47;3.67;;;12.10;99.90;;;;;;5257421;28;20464;-51
2022/10/11 08:54:33;;;;;;;19.77;3.97;;;12.30;99.90;;;;;;5239080;28;20413;-49
2022/10/11 08:57:06;;;;;;;9.87;3.40;;;12.30;99.90;;;;;;5246023;28;20423;-50
2022/10/11 08:59:48;;;;;;;11.97;3.10;;;12.30;99.90;;;;;;5260050;28;20432;-49
2022/10/11 09:02:48;;;;;;;10.40;2.57;;;12.40;99.90;;;;;;5254357;28;20436;-49
2022/10/11 09:05:19;;;;;;;10.40;3.30;;;12.50;99.90;;;;;;5235656;28;20451;-49
2022/10/11 09:07:59;;;;;;;9.27;2.50;;;12.60;99.90;;;;;;5226143;28;20471;-50
2022/10/11 09:10:56;;;;;;;6.53;2.47;;;12.80;99.90;;;;;;5258586;28;20466;-49
2022/10/11 09:13:40;;;;;;;4.77;2.23;;;12.90;99.90;;;;;;5252680;28;20480;-50
2022/10/11 09:16:32;;;;;;;12.57;3.20;;;13.10;99.90;;;;;;5263211;28;20450;-49
2022/10/11 09:19:17;;;;;;;11.20;4.53;;;13.20;99.90;;;;;;5262127;28;20443;-50
2022/10/11 09:22:27;;;;;;;20.13;3.50;;;13.30;99.90;;;;;;5247228;28;20899;-49
2022/10/11 09:25:18;;;;;;;8.87;3.10;;;13.40;99.90;;;;;;5165199;28;20858;-57
2022/10/11 09:28:29;;;;;;;16.73;5.07;;;13.40;99.90;;;;;;5257885;28;20878;-49
2022/10/11 09:31:00;;;;;;;6.27;3.00;;;13.40;99.90;;;;;;5252647;28;20514;-49
2022/10/11 09:33:42;;;;;;;11.83;2.63;;;13.40;99.90;;;;;;5266566;28;20515;-51
2022/10/11 09:36:16;;;;;;;6.63;2.57;;;13.50;99.90;;;;;;5248741;28;20259;-49
2022/10/11 09:39:43;;;;;;;10.60;2.47;;;13.60;99.90;;;;;;5249368;28;20440;-48
2022/10/11 09:42:14;;;;;;;12.50;3.13;;;13.60;99.90;;;;;;5165799;28;20452;-51
2022/10/11 09:44:50;;;;;;;17.40;3.10;;;13.60;99.90;;;;;;5265729;22;20472;-47
2022/10/11 09:47:26;;;;;;;6.47;2.50;;;13.70;99.90;;;;;;5261741;28;20685;-48
2022/10/11 09:50:03;;;;;;;10.97;2.80;;;13.60;99.90;;;;;;5243098;28;20427;-50
2022/10/11 09:52:48;;;;;;;4.60;2.30;;;13.60;99.90;;;;;;5247657;28;20455;-52
2022/10/11 09:55:42;;;;;;;6.10;2.80;;;13.70;99.90;;;;;;5260294;28;20484;-48
2022/10/11 09:58:34;;;;;;;15.13;3.53;;;13.70;99.90;;;;;;5241364;28;20433;-54
2022/10/11 10:01:07;;;;;;;9.90;2.90;;;13.90;99.90;;;;;;5230034;28;20440;-51
2022/10/11 10:03:42;;;;;;;18.73;3.00;;;13.90;99.90;;;;;;5228678;28;20425;-51
2022/10/11 10:06:24;;;;;;;7.40;3.03;;;13.90;99.90;;;;;;5238460;28;20471;-52
2022/10/11 10:09:24;;;;;;;10.57;2.77;;;13.90;99.90;;;;;;5241893;28;20437;-50
2022/10/11 10:11:56;;;;;;;17.93;3.47;;;14.00;99.90;;;;;;5226873;28;20506;-49
2022/10/11 10:14:29;;;;;;;12.00;2.83;;;14.00;99.90;;;;;;5226962;28;20435;-50
2022/10/11 10:17:05;;;;;;;7.70;2.60;;;13.90;99.90;;;;;;5246605;28;20547;-51
2022/10/11 10:19:47;;;;;;;15.53;2.83;;;14.00;99.90;;;;;;5247609;28;20418;-48
2022/10/11 10:22:21;;;;;;;24.57;2.90;;;14.10;99.90;;;;;;5242997;28;20474;-50
2022/10/11 10:24:53;;;;;;;13.00;2.73;;;14.20;99.90;;;;;;5249029;28;20486;-50
2022/10/11 10:27:27;;;;;;;11.70;2.80;;;14.20;99.90;;;;;;5220742;28;20481;-52
2022/10/11 10:30:07;;;;;;;11.47;3.30;;;14.10;99.90;;;;;;5239475;28;20944;-51
2022/10/11 10:33:01;;;;;;;7.57;2.53;;;14.00;99.90;;;;;;5223152;28;20472;-48
2022/10/11 10:35:40;;;;;;;12.10;2.33;;;14.00;99.90;;;;;;5242228;28;20484;-50
2022/10/11 10:38:21;;;;;;;21.80;2.97;;;14.10;99.90;;;;;;5237465;28;21111;-49
2022/10/11 10:41:00;;;;;;;6.83;2.57;;;14.10;99.90;;;;;;5242319;28;20538;-49
2022/10/11 10:43:36;;;;;;;6.67;2.50;;;14.10;99.90;;;;;;5244409;28;20520;-49
2022/10/11 10:46:40;;;;;;;7.30;2.97;;;14.10;99.90;;;;;;5245007;28;20562;-49
2022/10/11 10:49:35;;;;;;;7.73;2.60;;;14.20;99.90;;;;;;5226754;28;20444;-48
2022/10/11 10:52:15;;;;;;;7.90;2.57;;;14.30;99.90;;;;;;5244636;28;20523;-50
2022/10/11 10:55:06;;;;;;;16.87;4.47;;;14.50;99.90;;;;;;5226572;28;20447;-50
2022/10/11 10:58:02;;;;;;;6.43;2.70;;;14.60;99.90;;;;;;5242538;28;20472;-48
2022/10/11 11:00:44;;;;;;;11.27;3.77;;;14.90;99.90;;;;;;5233196;28;20440;-49
2022/10/11 11:03:41;;;;;;;3.60;2.10;;;14.80;99.90;;;;;;5247043;28;20436;-48
2022/10/11 11:06:26;;;;;;;9.03;3.50;;;14.80;99.90;;;;;;5222651;28;20862;-48
2022/10/11 11:09:15;;;;;;;12.90;3.17;;;15.20;99.90;;;;;;5241174;28;20512;-49
2022/10/11 11:12:04;;;;;;;6.13;2.30;;;15.50;98.60;;;;;;5241460;28;20463;-50
2022/10/11 11:14:49;;;;;;;9.50;2.07;;;15.90;97.70;;;;;;5246201;28;20938;-48
2022/10/11 11:17:44;;;;;;;3.20;1.87;;;16.00;93.70;;;;;;5249681;28;20420;-47
2022/10/11 11:20:45;;;;;;;5.70;2.80;;;15.80;92.00;;;;;;5214406;28;20428;-48
2022/10/11 11:23:33;;;;;;;8.53;2.80;;;15.80;91.20;;;;;;5250347;28;20420;-47
2022/10/11 11:26:28;;;;;;;8.37;1.77;;;15.90;91.70;;;;;;5222168;28;20503;-49
2022/10/11 11:29:02;;;;;;;9.63;2.40;;;15.90;90.10;;;;;;5249400;28;20882;-49
2022/10/11 11:32:09;;;;;;;8.40;2.70;;;15.90;87.60;;;;;;5228435;28;20436;-49
2022/10/11 11:34:48;;;;;;;13.23;3.00;;;15.70;88.70;;;;;;5215299;28;20527;-49
2022/10/11 11:37:27;;;;;;;12.77;2.60;;;15.40;89.20;;;;;;5242001;28;20464;-49
2022/10/11 11:40:25;;;;;;;16.00;3.93;;;15.20;89.60;;;;;;5245869;28;20507;-47
2022/10/11 11:43:02;;;;;;;9.70;2.83;;;15.10;91.00;;;;;;5227466;28;20432;-47
2022/10/11 11:46:08;;;;;;;14.80;2.70;;;15.20;91.00;;;;;;5243183;28;20551;-49
2022/10/11 11:48:40;;;;;;;6.93;2.73;;;15.20;91.30;;;;;;5244674;28;20436;-47
2022/10/11 11:51:25;;;;;;;4.30;1.93;;;15.30;91.30;;;;;;5231635;28;20447;-50
2022/10/11 11:54:01;;;;;;;14.57;2.30;;;15.20;91.00;;;;;;5228378;28;20815;-50
2022/10/11 11:56:42;;;;;;;6.30;2.20;;;15.00;91.40;;;;;;5245845;28;23353;-51
2022/10/11 11:59:26;;;;;;;21.17;2.63;;;14.80;92.10;;;;;;5231333;28;20561;-50
2022/10/11 12:02:34;;;;;;;5.90;1.87;;;14.70;92.50;;;;;;5243823;28;20447;-49
2022/10/11 12:05:07;;;;;;;7.63;3.10;;;14.60;91.60;;;;;;5244964;28;20580;-49
2022/10/11 12:07:54;;;;;;;12.43;2.20;;;14.60;91.20;;;;;;5251665;28;20800;-50
2022/10/11 12:10:30;;;;;;;6.53;1.77;;;14.50;91.00;;;;;;5250554;28;20427;-50
2022/10/11 12:13:18;;;;;;;11.70;1.87;;;14.60;91.60;;;;;;5238543;28;20495;-49
2022/10/11 12:15:57;;;;;;;2.27;1.40;;;14.50;92.10;;;;;;5248807;28;20916;-49
2022/10/11 12:18:30;;;;;;;11.03;2.00;;;14.40;91.80;;;;;;5247173;28;20933;-50
2022/10/11 12:21:14;;;;;;;5.37;1.87;;;14.30;91.20;;;;;;5239923;28;20436;-51
2022/10/11 12:23:51;;;;;;;8.13;2.43;;;14.20;91.10;;;;;;5245563;28;20436;-49
2022/10/11 12:26:28;;;;;;;5.30;1.87;;;14.10;91.30;;;;;;5233230;28;20479;-50
2022/10/11 12:29:32;;;;;;;7.27;2.50;;;14.10;91.30;;;;;;5247482;28;20466;-50
2022/10/11 12:32:03;;;;;;;10.57;2.03;;;14.10;91.70;;;;;;5250303;28;20858;-51
2022/10/11 12:34:35;;;;;;;11.43;1.97;;;14.20;91.90;;;;;;5250793;28;20439;-50
2022/10/11 12:37:23;;;;;;;9.33;2.10;;;14.30;91.90;;;;;;5228531;28;20182;-51
2022/10/11 12:39:58;;;;;;;4.97;2.20;;;14.30;92.10;;;;;;5244009;28;20432;-50
2022/10/11 12:42:34;;;;;;;2.90;1.47;;;14.50;91.50;;;;;;5215315;28;20458;-50
2022/10/11 12:45:11;;;;;;;7.30;2.10;;;14.60;91.10;;;;;;5254075;28;20508;-52
2022/10/11 12:47:46;;;;;;;10.07;2.53;;;14.80;90.80;;;;;;5242673;28;20447;-49
2022/10/11 12:50:37;;;;;;;10.77;2.90;;;14.90;89.20;;;;;;5246246;28;20549;-48
2022/10/11 12:53:47;;;;;;;8.13;2.87;;;14.80;88.40;;;;;;5243513;28;20560;-49
2022/10/11 12:56:28;;;;;;;9.43;4.80;;;14.90;87.80;;;;;;5237979;28;20444;-51
2022/10/11 12:59:05;;;;;;;7.57;1.57;;;15.10;88.00;;;;;;5241978;28;20436;-52
2022/10/11 13:01:56;;;;;;;4.87;1.87;;;15.30;85.60;;;;;;5243634;28;20451;-52
2022/10/11 13:04:31;;;;;;;3.67;1.93;;;15.60;85.60;;;;;;5244267;28;20517;-51
2022/10/11 13:07:05;;;;;;;14.57;1.80;;;16.00;81.60;;;;;;5221245;28;20451;-52
2022/10/11 13:09:38;;;;;;;9.40;2.57;;;16.30;80.40;;;;;;5244120;28;20903;-52
2022/10/11 13:12:16;;;;;;;8.67;2.73;;;16.50;74.10;;;;;;5243386;28;20551;-48
2022/10/11 13:15:05;;;;;;;6.13;3.60;;;16.40;72.00;;;;;;5238565;28;20432;-51
2022/10/11 13:17:40;;;;;;;8.23;3.90;;;16.50;70.60;;;;;;5241712;28;20444;-49
2022/10/11 13:20:22;;;;;;;15.03;2.60;;;16.70;68.10;;;;;;5250350;28;20431;-49
2022/10/11 13:22:55;;;;;;;6.53;1.83;;;16.70;64.40;;;;;;5225048;28;20439;-47
2022/10/11 13:25:35;;;;;;;2.63;1.50;;;16.60;62.30;;;;;;5240431;28;20589;-48
2022/10/11 13:28:08;;;;;;;9.23;2.77;;;16.40;63.00;;;;;;5239260;28;21027;-56
2022/10/11 13:30:42;;;;;;;6.40;2.73;;;16.10;63.10;;;;;;5224954;28;20535;-54
2022/10/11 13:33:31;;;;;;;11.60;3.60;;;16.00;62.80;;;;;;5237535;28;20467;-53
2022/10/11 13:36:04;;;;;;;8.53;2.77;;;15.80;62.70;;;;;;5232670;28;20460;-52